createdAt,value
2019-02-28T00:01:21.124Z,99.90
2019-02-28T00:03:53.151Z,99.90
2019-02-28T00:06:24.747Z,99.90
2019-02-28T00:08:56.228Z,99.90
2019-02-28T00:11:28.592Z,99.90
2019-02-28T00:14:00.385Z,99.90
2019-02-28T00:16:35.653Z,99.90
2019-02-28T00:19:05.145Z,99.90
2019-02-28T00:21:37.378Z,99.90
2019-02-28T00:24:09.792Z,99.90
2019-02-28T00:26:46.312Z,99.90
2019-02-28T00:29:13.817Z,99.90
2019-02-28T00:31:49.428Z,99.90
2019-02-28T00:34:18.615Z,99.90
2019-02-28T00:36:53.396Z,99.90
2019-02-28T00:39:25.233Z,99.90
2019-02-28T00:41:56.503Z,99.90
2019-02-28T00:44:30.479Z,99.90
2019-02-28T00:47:00.424Z,99.90
2019-02-28T00:49:31.435Z,99.90
2019-02-28T00:52:02.755Z,99.90
2019-02-28T00:54:34.373Z,99.90
2019-02-28T00:57:07.280Z,99.90
2019-02-28T00:59:39.468Z,99.90
2019-02-28T01:02:11.290Z,99.90
2019-02-28T01:04:42.772Z,99.90
2019-02-28T01:07:16.218Z,99.90
2019-02-28T01:09:47.508Z,99.90
2019-02-28T01:12:19.951Z,99.90
2019-02-28T01:14:51.954Z,99.90
2019-02-28T01:17:26.736Z,99.90
2019-02-28T01:19:59.237Z,99.90
2019-02-28T01:22:31.035Z,99.90
2019-02-28T01:25:02.446Z,99.90
2019-02-28T01:27:34.299Z,99.90
2019-02-28T01:30:06.719Z,99.90
2019-02-28T01:32:39.432Z,99.90
2019-02-28T01:35:10.908Z,99.90
2019-02-28T01:37:42.580Z,99.90
2019-02-28T01:40:15.952Z,99.90
2019-02-28T01:42:47.703Z,99.90
2019-02-28T01:45:19.150Z,99.90
2019-02-28T01:47:52.378Z,99.90
2019-02-28T01:50:24.589Z,99.90
2019-02-28T01:52:56.867Z,99.90
2019-02-28T01:55:29.395Z,99.90
2019-02-28T01:58:02.434Z,99.90
2019-02-28T02:00:33.466Z,99.90
2019-02-28T02:03:04.396Z,99.90
2019-02-28T02:05:35.667Z,99.90
2019-02-28T02:08:07.732Z,99.90
2019-02-28T02:10:39.308Z,99.90
2019-02-28T02:13:11.024Z,99.90
2019-02-28T02:15:42.478Z,99.90
2019-02-28T02:18:14.466Z,99.90
2019-02-28T02:20:46.441Z,99.90
2019-02-28T02:23:19.435Z,99.90
2019-02-28T02:25:50.586Z,99.90
2019-02-28T02:28:26.904Z,99.90
2019-02-28T02:30:56.410Z,99.90
2019-02-28T02:33:28.191Z,99.90
2019-02-28T02:36:00.398Z,99.90
2019-02-28T02:38:39.744Z,99.90
2019-02-28T02:41:05.443Z,99.90
2019-02-28T02:43:37.020Z,99.90
2019-02-28T02:46:08.185Z,99.90
2019-02-28T02:48:42.280Z,99.90
2019-02-28T02:51:13.368Z,99.90
2019-02-28T02:53:44.994Z,99.90
2019-02-28T02:56:16.622Z,99.90
2019-02-28T02:58:50.795Z,99.90
2019-02-28T03:01:23.156Z,99.90
2019-02-28T03:03:54.326Z,99.90
2019-02-28T03:06:25.834Z,99.90
2019-02-28T03:08:57.404Z,99.90
2019-02-28T03:11:29.017Z,99.90
2019-02-28T03:14:00.443Z,99.90
2019-02-28T03:16:33.003Z,99.90
2019-02-28T03:19:04.509Z,99.90
2019-02-28T03:21:36.156Z,99.90
2019-02-28T03:24:14.729Z,99.90
2019-02-28T03:26:41.840Z,99.90
2019-02-28T03:29:13.795Z,99.90
2019-02-28T03:31:55.239Z,99.90
2019-02-28T03:34:18.624Z,99.90
2019-02-28T03:36:55.280Z,99.90
2019-02-28T03:39:25.653Z,99.90
2019-02-28T03:41:57.818Z,99.90
2019-02-28T03:44:28.989Z,99.90
2019-02-28T03:47:00.883Z,99.90
2019-02-28T03:49:32.667Z,99.90
2019-02-28T03:52:06.608Z,99.90
2019-02-28T03:54:38.586Z,99.90
2019-02-28T03:57:09.372Z,99.90
2019-02-28T03:59:41.758Z,99.90
2019-02-28T04:02:12.737Z,99.90
2019-02-28T04:04:48.811Z,99.90
2019-02-28T04:07:17.078Z,99.90
2019-02-28T04:09:49.548Z,99.90
2019-02-28T04:12:21.287Z,99.90
2019-02-28T04:14:52.927Z,99.90
2019-02-28T04:17:29.833Z,99.90
2019-02-28T04:20:00.092Z,99.90
2019-02-28T04:22:31.991Z,99.90
2019-02-28T04:25:03.279Z,99.90
2019-02-28T04:27:40.446Z,99.90
2019-02-28T04:30:11.793Z,99.90
2019-02-28T04:32:43.593Z,99.90
2019-02-28T04:35:15.575Z,99.90
2019-02-28T04:37:47.339Z,99.90
2019-02-28T04:40:18.705Z,99.90
2019-02-28T04:42:50.325Z,99.90
2019-02-28T04:45:23.332Z,99.90
2019-02-28T04:47:54.572Z,99.90
2019-02-28T04:50:31.301Z,99.90
2019-02-28T04:52:58.279Z,99.90
2019-02-28T04:55:30.659Z,99.90
2019-02-28T04:58:02.558Z,99.90
2019-02-28T05:00:33.767Z,99.90
2019-02-28T05:03:05.904Z,99.90
2019-02-28T05:05:37.716Z,99.90
2019-02-28T05:08:09.624Z,99.90
2019-02-28T05:10:41.286Z,99.90
2019-02-28T05:13:14.994Z,99.90
2019-02-28T05:15:47.465Z,99.90
2019-02-28T05:18:18.962Z,99.90
2019-02-28T05:20:49.796Z,99.90
2019-02-28T05:23:21.582Z,99.90
2019-02-28T05:25:54.146Z,99.90
2019-02-28T05:28:25.558Z,99.90
2019-02-28T05:30:57.008Z,99.90
2019-02-28T05:33:28.249Z,99.90
2019-02-28T05:36:00.262Z,99.90
2019-02-28T05:38:32.751Z,99.90
2019-02-28T05:41:04.267Z,99.90
2019-02-28T05:43:35.549Z,99.90
2019-02-28T05:46:06.729Z,99.90
2019-02-28T05:48:39.401Z,99.90
2019-02-28T05:51:11.231Z,99.90
2019-02-28T05:53:42.713Z,99.90
2019-02-28T05:56:13.769Z,99.90
2019-02-28T05:58:45.545Z,99.90
2019-02-28T06:01:17.169Z,99.90
2019-02-28T06:03:50.053Z,99.90
2019-02-28T06:06:22.154Z,99.90
2019-02-28T06:08:53.687Z,99.90
2019-02-28T06:11:25.752Z,99.90
2019-02-28T06:13:57.221Z,99.90
2019-02-28T06:16:28.629Z,99.90
2019-02-28T06:19:00.361Z,99.90
2019-02-28T06:21:31.640Z,99.90
2019-02-28T06:24:03.266Z,99.90
2019-02-28T06:26:36.086Z,99.90
2019-02-28T06:29:07.918Z,99.90
2019-02-28T06:31:40.215Z,99.90
2019-02-28T06:34:13.245Z,99.90
2019-02-28T06:36:44.756Z,99.90
2019-02-28T06:39:17.593Z,99.90
2019-02-28T06:41:48.945Z,99.90
2019-02-28T06:44:20.525Z,99.90
2019-02-28T06:46:52.512Z,99.90
2019-02-28T06:49:24.276Z,99.90
2019-02-28T06:51:56.259Z,99.90
2019-02-28T06:54:35.302Z,99.90
2019-02-28T06:57:27.440Z,99.90
2019-02-28T06:59:59.357Z,99.90
2019-02-28T07:02:31.494Z,99.90
2019-02-28T07:05:04.080Z,99.90
2019-02-28T07:07:36.374Z,99.90
2019-02-28T07:10:09.618Z,99.90
2019-02-28T07:12:42.159Z,99.90
2019-02-28T07:15:13.639Z,99.90
2019-02-28T07:17:46.520Z,99.90
2019-02-28T07:20:18.279Z,99.90
2019-02-28T07:22:54.369Z,99.90
2019-02-28T07:25:23.075Z,99.90
2019-02-28T07:27:54.339Z,99.90
2019-02-28T07:30:26.647Z,99.90
2019-02-28T07:32:58.529Z,99.90
2019-02-28T07:35:34.051Z,99.90
2019-02-28T07:38:08.083Z,99.90
2019-02-28T07:40:39.494Z,99.90
2019-02-28T07:43:27.877Z,99.90
2019-02-28T07:46:00.165Z,99.90
2019-02-28T07:48:32.483Z,97.40
2019-02-28T07:51:03.644Z,97.90
2019-02-28T07:53:35.991Z,97.10
2019-02-28T07:56:08.594Z,95.30
2019-02-28T07:58:40.028Z,93.50
2019-02-28T08:01:12.197Z,93.60
2019-02-28T08:03:44.773Z,93.30
2019-02-28T08:06:16.342Z,92.70
2019-02-28T08:08:48.124Z,92.20
2019-02-28T08:11:20.860Z,91.30
2019-02-28T08:13:52.791Z,90.90
2019-02-28T08:16:24.401Z,87.10
2019-02-28T08:18:55.631Z,85.40
2019-02-28T08:21:27.241Z,88.60
2019-02-28T08:23:58.249Z,84.80
2019-02-28T08:26:29.754Z,84.70
2019-02-28T08:29:07.810Z,81.60
2019-02-28T08:31:38.161Z,83.10
2019-02-28T08:34:09.530Z,82.60
2019-02-28T08:36:43.875Z,81.70
2019-02-28T08:39:16.850Z,79.80
2019-02-28T08:41:49.633Z,80.30
2019-02-28T08:44:23.834Z,79.10
2019-02-28T08:46:54.553Z,76.80
2019-02-28T08:49:26.864Z,78.20
2019-02-28T08:52:02.501Z,76.20
2019-02-28T08:54:33.284Z,76.30
2019-02-28T08:57:05.189Z,75.50
2019-02-28T08:59:37.164Z,76.00
2019-02-28T09:02:08.046Z,76.20
2019-02-28T09:04:41.438Z,73.50
2019-02-28T09:07:15.241Z,74.60
2019-02-28T09:09:46.187Z,74.00
2019-02-28T09:12:17.474Z,72.30
2019-02-28T09:14:48.772Z,71.60
2019-02-28T09:17:20.424Z,68.90
2019-02-28T09:19:53.552Z,69.60
2019-02-28T09:22:27.272Z,69.70
2019-02-28T09:24:57.471Z,70.20
2019-02-28T09:27:28.279Z,69.60
2019-02-28T09:29:59.488Z,70.70
2019-02-28T09:32:30.521Z,69.20
2019-02-28T09:35:05.742Z,65.60
2019-02-28T09:37:36.417Z,64.80
2019-02-28T09:40:08.593Z,64.00
2019-02-28T09:42:40.189Z,61.50
2019-02-28T09:45:14.431Z,60.10
2019-02-28T09:47:46.030Z,60.30
2019-02-28T09:50:22.434Z,59.70
2019-02-28T09:52:54.201Z,58.40
2019-02-28T09:55:25.847Z,58.00
2019-02-28T09:57:58.279Z,57.60
2019-02-28T10:00:30.499Z,58.10
2019-02-28T10:03:02.761Z,58.30
2019-02-28T10:05:38.677Z,57.10
2019-02-28T10:08:08.593Z,56.80
2019-02-28T10:10:41.057Z,58.40
2019-02-28T10:13:14.586Z,58.80
2019-02-28T10:15:46.567Z,59.50
2019-02-28T10:18:17.310Z,59.50
2019-02-28T10:20:49.055Z,60.30
2019-02-28T10:23:21.512Z,60.50
2019-02-28T10:25:54.224Z,60.50
2019-02-28T10:28:25.895Z,60.50
2019-02-28T10:30:57.563Z,59.80
2019-02-28T10:33:29.049Z,58.50
2019-02-28T10:36:01.643Z,56.80
2019-02-28T10:38:33.915Z,56.00
2019-02-28T10:41:08.557Z,55.40
2019-02-28T10:43:39.647Z,56.50
2019-02-28T10:46:13.344Z,56.30
2019-02-28T10:48:50.698Z,56.40
2019-02-28T10:51:16.271Z,55.20
2019-02-28T10:53:47.201Z,55.70
2019-02-28T10:56:18.198Z,55.90
2019-02-28T10:58:50.161Z,55.40
2019-02-28T11:01:22.685Z,54.40
2019-02-28T11:03:53.756Z,55.30
2019-02-28T11:06:28.057Z,55.90
2019-02-28T11:08:58.323Z,56.40
2019-02-28T11:11:29.791Z,55.20
2019-02-28T11:14:03.908Z,56.70
2019-02-28T11:16:33.707Z,57.10
2019-02-28T11:19:05.459Z,56.00
2019-02-28T11:21:36.664Z,56.60
2019-02-28T11:24:07.986Z,56.30
2019-02-28T11:26:44.740Z,57.40
2019-02-28T11:29:15.683Z,59.30
2019-02-28T11:31:46.999Z,57.00
2019-02-28T11:34:18.847Z,55.90
2019-02-28T11:36:50.401Z,56.20
2019-02-28T11:39:22.790Z,56.60
2019-02-28T11:41:54.435Z,54.50
2019-02-28T11:44:26.068Z,55.50
2019-02-28T11:46:57.869Z,54.80
2019-02-28T11:49:29.485Z,56.10
2019-02-28T11:52:00.887Z,55.40
2019-02-28T11:54:31.865Z,56.00
2019-02-28T11:57:08.745Z,54.80
2019-02-28T11:59:40.589Z,55.20
2019-02-28T12:02:12.443Z,54.70
2019-02-28T12:04:44.354Z,54.00
2019-02-28T12:07:15.928Z,53.40
2019-02-28T12:09:51.382Z,53.00
2019-02-28T12:12:21.288Z,49.70
2019-02-28T12:14:53.533Z,48.50
2019-02-28T12:17:28.326Z,50.10
2019-02-28T12:19:59.096Z,48.10
2019-02-28T12:22:30.342Z,46.90
2019-02-28T12:25:04.482Z,46.80
2019-02-28T12:27:34.790Z,47.50
2019-02-28T12:30:08.311Z,47.10
2019-02-28T12:32:40.352Z,46.70
2019-02-28T12:35:12.871Z,46.30
2019-02-28T12:37:46.050Z,47.10
2019-02-28T12:40:19.562Z,47.50
2019-02-28T12:42:50.668Z,47.60
2019-02-28T12:45:25.191Z,48.20
2019-02-28T12:47:56.492Z,46.90
2019-02-28T12:50:29.417Z,46.20
2019-02-28T12:53:01.691Z,45.70
2019-02-28T12:55:35.503Z,46.80
2019-02-28T12:58:07.117Z,47.20
2019-02-28T13:00:39.689Z,47.10
2019-02-28T13:03:12.122Z,47.30
2019-02-28T13:05:47.824Z,47.80
2019-02-28T13:08:17.356Z,48.10
2019-02-28T13:10:49.300Z,48.20
2019-02-28T13:13:27.493Z,48.30
2019-02-28T13:15:54.667Z,47.60
2019-02-28T13:18:26.743Z,48.30
2019-02-28T13:20:58.511Z,49.40
2019-02-28T13:23:33.159Z,50.80
2019-02-28T13:26:05.694Z,51.90
2019-02-28T13:28:41.071Z,52.70
2019-02-28T13:31:12.281Z,52.50
2019-02-28T13:33:43.444Z,53.90
2019-02-28T13:36:14.458Z,53.70
2019-02-28T13:38:46.486Z,54.30
2019-02-28T13:41:21.726Z,54.40
2019-02-28T13:43:54.729Z,53.10
2019-02-28T13:46:32.393Z,52.80
2019-02-28T13:48:59.857Z,53.60
2019-02-28T13:51:32.767Z,54.00
2019-02-28T13:54:06.501Z,54.00
2019-02-28T13:56:38.482Z,54.20
2019-02-28T13:59:10.083Z,53.40
2019-02-28T14:01:41.637Z,54.70
2019-02-28T14:04:13.669Z,56.00
2019-02-28T14:06:46.027Z,56.60
2019-02-28T14:09:18.852Z,56.00
2019-02-28T14:11:52.003Z,56.20
2019-02-28T14:14:23.553Z,56.50
2019-02-28T14:16:58.271Z,56.90
2019-02-28T14:19:29.155Z,57.50
2019-02-28T14:22:00.844Z,58.40
2019-02-28T14:24:32.895Z,58.90
2019-02-28T14:27:04.286Z,60.70
2019-02-28T14:29:36.642Z,61.90
2019-02-28T14:32:08.385Z,60.30
2019-02-28T14:34:40.399Z,60.60
2019-02-28T14:37:12.231Z,60.90
2019-02-28T14:39:44.085Z,60.80
2019-02-28T14:42:15.925Z,58.80
2019-02-28T14:44:48.084Z,59.60
2019-02-28T14:47:24.912Z,59.90
2019-02-28T14:49:55.481Z,60.10
2019-02-28T14:52:27.773Z,60.70
2019-02-28T14:54:59.234Z,62.00
2019-02-28T14:57:30.843Z,62.80
2019-02-28T15:00:06.304Z,63.90
2019-02-28T15:02:37.146Z,63.20
2019-02-28T15:05:09.925Z,62.10
2019-02-28T15:07:42.142Z,63.20
2019-02-28T15:10:15.731Z,62.80
2019-02-28T15:12:47.124Z,63.20
2019-02-28T15:15:20.427Z,61.60
2019-02-28T15:17:53.572Z,62.20
2019-02-28T15:20:31.505Z,61.30
2019-02-28T15:23:01.004Z,61.90
2019-02-28T15:25:32.887Z,62.40
2019-02-28T15:28:05.756Z,63.50
2019-02-28T15:30:38.189Z,62.70
2019-02-28T15:33:11.212Z,63.10
2019-02-28T15:35:43.181Z,64.60
2019-02-28T15:38:19.613Z,64.90
2019-02-28T15:40:50.924Z,65.70
2019-02-28T15:43:23.302Z,65.90
2019-02-28T15:45:56.272Z,66.40
2019-02-28T15:48:31.413Z,66.50
2019-02-28T15:51:03.638Z,67.80
2019-02-28T15:53:35.391Z,67.40
2019-02-28T15:56:13.233Z,68.10
2019-02-28T15:58:42.350Z,69.30
2019-02-28T16:01:15.477Z,70.20
2019-02-28T16:03:48.441Z,69.40
2019-02-28T16:06:21.838Z,72.20
2019-02-28T16:08:54.436Z,71.60
2019-02-28T16:11:27.352Z,73.00
2019-02-28T16:14:00.500Z,74.30
2019-02-28T16:16:33.642Z,74.80
2019-02-28T16:19:06.555Z,76.40
2019-02-28T16:21:41.614Z,78.80
2019-02-28T16:24:14.435Z,78.00
2019-02-28T16:26:48.027Z,80.30
2019-02-28T16:29:21.368Z,80.90
2019-02-28T16:31:54.748Z,84.20
2019-02-28T16:34:27.085Z,86.10
2019-02-28T16:37:01.006Z,87.20
2019-02-28T16:39:33.606Z,90.20
2019-02-28T16:42:08.342Z,90.60
2019-02-28T16:44:39.868Z,91.90
2019-02-28T16:47:12.830Z,93.20
2019-02-28T16:49:45.615Z,94.80
2019-02-28T16:52:18.330Z,95.40
2019-02-28T16:54:53.379Z,96.50
2019-02-28T16:57:27.040Z,97.30
2019-02-28T17:00:04.026Z,98.50
2019-02-28T17:02:35.082Z,99.70
2019-02-28T17:05:08.044Z,99.90
2019-02-28T17:07:43.579Z,99.90
2019-02-28T17:10:18.080Z,99.90
2019-02-28T17:13:08.946Z,99.90
2019-02-28T17:15:48.701Z,99.90
2019-02-28T17:18:22.587Z,99.90
2019-02-28T17:20:55.441Z,99.90
2019-02-28T17:23:28.130Z,99.90
2019-02-28T17:26:01.824Z,99.90
2019-02-28T17:28:49.366Z,99.90
2019-02-28T17:31:44.626Z,99.90
2019-02-28T17:34:23.805Z,99.90
2019-02-28T17:36:55.571Z,99.90
2019-02-28T17:39:28.487Z,99.90
2019-02-28T17:42:08.289Z,99.90
2019-02-28T17:45:20.091Z,99.90
2019-02-28T17:48:24.568Z,99.90
2019-02-28T17:51:22.748Z,99.90
2019-02-28T17:54:32.957Z,99.90
2019-02-28T17:57:41.665Z,99.90
2019-02-28T18:00:30.609Z,99.90
2019-02-28T18:03:49.430Z,99.90
2019-02-28T18:07:01.002Z,99.90
2019-02-28T18:09:51.454Z,99.90
2019-02-28T18:13:00.171Z,99.90
2019-02-28T18:16:03.866Z,99.90
2019-02-28T18:19:18.147Z,99.90
2019-02-28T18:22:21.825Z,99.90
2019-02-28T18:25:48.689Z,99.90
2019-02-28T18:29:06.964Z,99.90
2019-02-28T18:31:41.930Z,99.90
2019-02-28T18:34:25.003Z,99.90
2019-02-28T18:36:57.447Z,99.90
2019-02-28T18:39:30.390Z,99.90
2019-02-28T18:42:02.643Z,99.90
2019-02-28T18:44:37.340Z,99.90
2019-02-28T18:47:10.207Z,99.90
2019-02-28T18:49:43.646Z,99.90
2019-02-28T18:52:15.881Z,99.90
2019-02-28T18:54:49.162Z,99.90
2019-02-28T18:57:22.435Z,99.90
2019-02-28T18:59:56.407Z,99.90
2019-02-28T19:02:29.208Z,99.90
2019-02-28T19:05:02.084Z,99.90
2019-02-28T19:07:34.841Z,99.90
2019-02-28T19:10:09.027Z,99.90
2019-02-28T19:12:42.288Z,99.90
2019-02-28T19:15:16.974Z,99.90
2019-02-28T19:17:50.003Z,99.90
2019-02-28T19:20:26.359Z,99.90
2019-02-28T19:22:59.360Z,99.90
2019-02-28T19:25:32.228Z,99.90
2019-02-28T19:28:06.211Z,99.90
2019-02-28T19:30:40.387Z,99.90
2019-02-28T19:33:13.115Z,99.90
2019-02-28T19:35:46.232Z,99.90
2019-02-28T19:38:20.709Z,99.90
2019-02-28T19:40:55.352Z,99.90
2019-02-28T19:43:27.908Z,99.90
2019-02-28T19:46:00.676Z,99.90
2019-02-28T19:48:34.430Z,99.90
2019-02-28T19:51:06.904Z,99.90
2019-02-28T19:53:39.580Z,99.90
2019-02-28T19:56:13.122Z,99.90
2019-02-28T19:58:46.196Z,99.90
2019-02-28T20:01:20.963Z,99.90
2019-02-28T20:03:55.147Z,99.90
2019-02-28T20:06:27.681Z,99.90
2019-02-28T20:09:00.329Z,99.90
2019-02-28T20:11:33.409Z,99.90
2019-02-28T20:14:05.674Z,99.90
2019-02-28T20:16:38.588Z,99.90
2019-02-28T20:19:12.137Z,99.90
2019-02-28T20:21:47.211Z,99.90
2019-02-28T20:24:24.439Z,99.90
2019-02-28T20:26:58.082Z,99.90
2019-02-28T20:29:30.788Z,99.90
2019-02-28T20:32:03.807Z,99.90
2019-02-28T20:34:36.362Z,99.90
2019-02-28T20:37:09.325Z,99.90
2019-02-28T20:39:41.675Z,99.90
2019-02-28T20:42:14.137Z,99.90
2019-02-28T20:44:47.318Z,99.90
2019-02-28T20:47:20.597Z,99.90
2019-02-28T20:49:54.353Z,99.90
2019-02-28T20:52:28.046Z,99.90
2019-02-28T20:55:01.432Z,99.90
2019-02-28T20:57:34.372Z,99.90
2019-02-28T21:00:07.590Z,99.90
2019-02-28T21:02:41.427Z,99.90
2019-02-28T21:05:14.479Z,99.90
2019-02-28T21:07:48.216Z,99.90
2019-02-28T21:10:20.029Z,99.90
2019-02-28T21:12:52.584Z,99.90
2019-02-28T21:15:25.186Z,99.90
2019-02-28T21:21:06.615Z,99.90
2019-02-28T21:23:38.986Z,99.90
2019-02-28T21:26:11.209Z,99.90
2019-02-28T21:28:43.600Z,99.90
2019-02-28T21:31:16.292Z,99.90
2019-02-28T21:33:48.947Z,99.90
2019-02-28T21:36:20.990Z,99.90
2019-02-28T21:38:53.213Z,99.90
2019-02-28T21:41:26.719Z,99.90
2019-02-28T21:44:00.187Z,99.90
2019-02-28T21:46:31.559Z,99.90
2019-02-28T21:49:03.450Z,99.90
2019-02-28T21:51:35.133Z,99.90
2019-02-28T21:54:06.298Z,99.90
2019-02-28T21:56:37.502Z,99.90
2019-02-28T21:59:10.217Z,99.90
2019-02-28T22:01:44.443Z,99.90
2019-02-28T22:04:15.815Z,99.90
2019-02-28T22:06:47.677Z,99.90
2019-02-28T22:09:18.500Z,99.90
2019-02-28T22:11:50.038Z,99.90
2019-02-28T22:14:21.644Z,99.90
2019-02-28T22:16:52.941Z,99.90
2019-02-28T22:19:23.846Z,99.90
2019-02-28T22:21:55.723Z,99.90
2019-02-28T22:24:27.251Z,99.90
2019-02-28T22:26:58.528Z,99.90
2019-02-28T22:29:31.078Z,99.90
2019-02-28T22:32:24.411Z,99.90
2019-02-28T22:35:06.232Z,99.90
2019-02-28T22:37:38.721Z,99.90
2019-02-28T22:40:10.468Z,99.90
2019-02-28T22:42:43.487Z,99.90
2019-02-28T22:45:17.521Z,99.90
2019-02-28T22:47:49.145Z,99.90
2019-02-28T22:50:20.504Z,99.90
2019-02-28T22:52:53.685Z,99.90
2019-02-28T22:55:25.185Z,99.90
2019-02-28T22:57:56.342Z,99.90
2019-02-28T23:01:09.705Z,99.90
2019-02-28T23:03:41.920Z,99.90
2019-02-28T23:06:13.352Z,99.90
2019-02-28T23:08:44.884Z,99.90
2019-02-28T23:11:17.164Z,99.90
2019-02-28T23:13:49.984Z,99.90
2019-02-28T23:16:21.400Z,99.90
2019-02-28T23:18:53.374Z,99.90
2019-02-28T23:21:24.832Z,99.90
2019-02-28T23:23:56.594Z,99.90
2019-02-28T23:26:29.350Z,99.90
2019-02-28T23:29:15.652Z,99.90
2019-02-28T23:32:33.866Z,99.90
2019-02-28T23:35:06.003Z,99.90
2019-02-28T23:37:37.271Z,99.90
2019-02-28T23:40:08.922Z,99.90
2019-02-28T23:42:40.039Z,99.90
2019-02-28T23:45:14.047Z,99.90
2019-02-28T23:47:45.641Z,99.90
2019-02-28T23:50:16.346Z,99.90
2019-02-28T23:52:48.372Z,99.90
2019-02-28T23:55:19.509Z,99.90
2019-02-28T23:57:50.732Z,99.90
